Weather at Enrique Malek International Airport

Public forecast

Using degrees Celsius for public forecast. Weather courtesy of forecast.io.

Current aviation weather report (METAR) for Enrique Malek International Airport

2024/06/19 01:00 (retrieved 1 hour ago)

MPDA 190100Z 08004KT 8000 -RA SCT012CB OVC080 24/24 Q1009

Closest aviation forecast (TAF) to Enrique Malek International Airport

Forecast is more than 12 hours old.

Closest forecast is San Antonio Del Tachira Airport, 595.0 nm (1,102.0 km) E.

2024/06/18 12:21 (retrieved 14 hours ago)

TAF SVSA 181000Z 1812/1912 00000KT 9999 SCT016 TX31/1818Z TN22/1906Z TEMPO 1815/1818 09002KT 9999 SCT016 SCT100